sensor_id;sensor_type;location;lat;lon;timestamp;P1;durP1;ratioP1;P2;durP2;ratioP2
3259;SDS011;22469;48.150;14.004;2022-08-19T00:02:11;4.87;;;4.57;;
3259;SDS011;22469;48.150;14.004;2022-08-19T00:04:38;6.43;;;5.70;;
3259;SDS011;22469;48.150;14.004;2022-08-19T00:07:06;6.20;;;5.63;;
3259;SDS011;22469;48.150;14.004;2022-08-19T00:09:34;4.90;;;4.40;;
3259;SDS011;22469;48.150;14.004;2022-08-19T00:12:01;5.93;;;5.43;;
3259;SDS011;22469;48.150;14.004;2022-08-19T00:14:29;6.30;;;5.37;;
3259;SDS011;22469;48.150;14.004;2022-08-19T00:16:58;7.53;;;6.23;;
3259;SDS011;22469;48.150;14.004;2022-08-19T00:19:26;5.60;;;5.20;;
3259;SDS011;22469;48.150;14.004;2022-08-19T00:21:53;5.80;;;5.37;;
3259;SDS011;22469;48.150;14.004;2022-08-19T00:24:22;6.00;;;5.60;;
3259;SDS011;22469;48.150;14.004;2022-08-19T00:26:51;5.67;;;5.13;;
3259;SDS011;22469;48.150;14.004;2022-08-19T00:29:19;6.10;;;5.60;;
3259;SDS011;22469;48.150;14.004;2022-08-19T00:31:47;5.90;;;5.30;;
3259;SDS011;22469;48.150;14.004;2022-08-19T00:34:16;5.50;;;5.00;;
3259;SDS011;22469;48.150;14.004;2022-08-19T00:36:43;9.10;;;6.37;;
3259;SDS011;22469;48.150;14.004;2022-08-19T00:39:12;5.60;;;5.10;;
3259;SDS011;22469;48.150;14.004;2022-08-19T00:41:42;6.43;;;4.87;;
3259;SDS011;22469;48.150;14.004;2022-08-19T00:46:53;6.50;;;6.00;;
3259;SDS011;22469;48.150;14.004;2022-08-19T00:52:09;6.00;;;5.47;;
3259;SDS011;22469;48.150;14.004;2022-08-19T00:54:42;6.83;;;5.73;;
3259;SDS011;22469;48.150;14.004;2022-08-19T00:57:16;9.20;;;5.90;;
3259;SDS011;22469;48.150;14.004;2022-08-19T00:59:47;5.70;;;5.10;;
3259;SDS011;22469;48.150;14.004;2022-08-19T01:02:28;6.20;;;5.63;;
3259;SDS011;22469;48.150;14.004;2022-08-19T01:04:57;9.77;;;6.20;;
3259;SDS011;22469;48.150;14.004;2022-08-19T01:07:28;6.63;;;5.80;;
3259;SDS011;22469;48.150;14.004;2022-08-19T01:10:04;5.80;;;5.40;;
3259;SDS011;22469;48.150;14.004;2022-08-19T01:12:35;5.90;;;5.30;;
3259;SDS011;22469;48.150;14.004;2022-08-19T01:15:05;6.23;;;5.60;;
3259;SDS011;22469;48.150;14.004;2022-08-19T01:17:35;7.33;;;5.23;;
3259;SDS011;22469;48.150;14.004;2022-08-19T01:20:07;7.93;;;5.87;;
3259;SDS011;22469;48.150;14.004;2022-08-19T01:25:10;6.80;;;6.23;;
3259;SDS011;22469;48.150;14.004;2022-08-19T01:27:41;6.50;;;5.90;;
3259;SDS011;22469;48.150;14.004;2022-08-19T01:30:15;8.50;;;5.57;;
3259;SDS011;22469;48.150;14.004;2022-08-19T01:32:48;6.17;;;5.60;;
3259;SDS011;22469;48.150;14.004;2022-08-19T01:35:17;6.77;;;6.03;;
3259;SDS011;22469;48.150;14.004;2022-08-19T01:37:50;5.50;;;5.00;;
3259;SDS011;22469;48.150;14.004;2022-08-19T01:40:22;11.23;;;5.77;;
3259;SDS011;22469;48.150;14.004;2022-08-19T01:42:53;6.53;;;6.03;;
3259;SDS011;22469;48.150;14.004;2022-08-19T01:45:22;6.47;;;5.97;;
3259;SDS011;22469;48.150;14.004;2022-08-19T01:47:52;7.60;;;6.77;;
3259;SDS011;22469;48.150;14.004;2022-08-19T01:50:27;9.43;;;6.70;;
3259;SDS011;22469;48.150;14.004;2022-08-19T01:52:57;7.80;;;6.90;;
3259;SDS011;22469;48.150;14.004;2022-08-19T01:55:31;9.47;;;6.63;;
3259;SDS011;22469;48.150;14.004;2022-08-19T01:58:07;6.93;;;6.40;;
3259;SDS011;22469;48.150;14.004;2022-08-19T02:00:43;7.30;;;6.60;;
3259;SDS011;22469;48.150;14.004;2022-08-19T02:03:11;7.23;;;6.53;;
3259;SDS011;22469;48.150;14.004;2022-08-19T02:05:41;10.07;;;7.37;;
3259;SDS011;22469;48.150;14.004;2022-08-19T02:08:10;7.80;;;6.80;;
3259;SDS011;22469;48.150;14.004;2022-08-19T02:10:39;6.80;;;6.20;;
3259;SDS011;22469;48.150;14.004;2022-08-19T02:13:09;6.70;;;6.20;;
3259;SDS011;22469;48.150;14.004;2022-08-19T02:15:38;7.43;;;6.57;;
3259;SDS011;22469;48.150;14.004;2022-08-19T02:18:05;7.67;;;7.07;;
3259;SDS011;22469;48.150;14.004;2022-08-19T02:20:34;7.20;;;6.50;;
3259;SDS011;22469;48.150;14.004;2022-08-19T02:23:02;7.70;;;7.07;;
3259;SDS011;22469;48.150;14.004;2022-08-19T02:25:39;7.70;;;6.87;;
3259;SDS011;22469;48.150;14.004;2022-08-19T02:28:07;8.37;;;7.57;;
3259;SDS011;22469;48.150;14.004;2022-08-19T02:30:34;10.27;;;7.90;;
3259;SDS011;22469;48.150;14.004;2022-08-19T02:33:01;10.27;;;8.33;;
3259;SDS011;22469;48.150;14.004;2022-08-19T02:35:28;14.30;;;9.20;;
3259;SDS011;22469;48.150;14.004;2022-08-19T02:37:55;9.20;;;8.07;;
3259;SDS011;22469;48.150;14.004;2022-08-19T02:40:47;11.57;;;8.67;;
3259;SDS011;22469;48.150;14.004;2022-08-19T02:43:18;10.90;;;8.30;;
3259;SDS011;22469;48.150;14.004;2022-08-19T02:45:49;9.83;;;8.83;;
3259;SDS011;22469;48.150;14.004;2022-08-19T02:48:18;10.30;;;9.40;;
3259;SDS011;22469;48.150;14.004;2022-08-19T02:50:50;9.93;;;9.03;;
3259;SDS011;22469;48.150;14.004;2022-08-19T02:53:22;13.07;;;9.50;;
3259;SDS011;22469;48.150;14.004;2022-08-19T02:55:52;10.90;;;9.27;;
3259;SDS011;22469;48.150;14.004;2022-08-19T02:58:20;9.60;;;8.80;;
3259;SDS011;22469;48.150;14.004;2022-08-19T03:00:51;9.57;;;8.77;;
3259;SDS011;22469;48.150;14.004;2022-08-19T03:03:21;10.87;;;9.30;;
3259;SDS011;22469;48.150;14.004;2022-08-19T03:05:49;12.57;;;9.30;;
3259;SDS011;22469;48.150;14.004;2022-08-19T03:08:23;10.60;;;9.70;;
3259;SDS011;22469;48.150;14.004;2022-08-19T03:10:52;14.00;;;9.57;;
3259;SDS011;22469;48.150;14.004;2022-08-19T03:13:20;11.87;;;9.80;;
3259;SDS011;22469;48.150;14.004;2022-08-19T03:15:47;11.70;;;10.57;;
3259;SDS011;22469;48.150;14.004;2022-08-19T03:18:15;10.73;;;9.50;;
3259;SDS011;22469;48.150;14.004;2022-08-19T03:20:48;10.97;;;9.90;;
3259;SDS011;22469;48.150;14.004;2022-08-19T03:23:21;14.63;;;10.50;;
3259;SDS011;22469;48.150;14.004;2022-08-19T03:25:49;12.40;;;11.20;;
3259;SDS011;22469;48.150;14.004;2022-08-19T03:28:40;12.20;;;11.07;;
3259;SDS011;22469;48.150;14.004;2022-08-19T03:31:21;11.00;;;10.00;;
3259;SDS011;22469;48.150;14.004;2022-08-19T03:34:10;11.60;;;10.50;;
3259;SDS011;22469;48.150;14.004;2022-08-19T03:36:40;10.40;;;9.57;;
3259;SDS011;22469;48.150;14.004;2022-08-19T03:39:09;11.13;;;10.23;;
3259;SDS011;22469;48.150;14.004;2022-08-19T03:41:37;12.07;;;11.07;;
3259;SDS011;22469;48.150;14.004;2022-08-19T03:44:16;11.20;;;10.20;;
3259;SDS011;22469;48.150;14.004;2022-08-19T03:46:48;11.43;;;10.20;;
3259;SDS011;22469;48.150;14.004;2022-08-19T03:49:22;11.40;;;10.50;;
3259;SDS011;22469;48.150;14.004;2022-08-19T03:51:55;11.50;;;10.50;;
3259;SDS011;22469;48.150;14.004;2022-08-19T03:54:24;10.47;;;9.57;;
3259;SDS011;22469;48.150;14.004;2022-08-19T03:56:53;10.40;;;9.63;;
3259;SDS011;22469;48.150;14.004;2022-08-19T03:59:28;11.90;;;10.87;;
3259;SDS011;22469;48.150;14.004;2022-08-19T04:02:00;11.23;;;10.33;;
3259;SDS011;22469;48.150;14.004;2022-08-19T04:04:35;11.43;;;10.40;;
3259;SDS011;22469;48.150;14.004;2022-08-19T04:07:08;12.37;;;11.17;;
3259;SDS011;22469;48.150;14.004;2022-08-19T04:09:37;12.07;;;10.97;;
3259;SDS011;22469;48.150;14.004;2022-08-19T04:12:04;12.63;;;11.37;;
3259;SDS011;22469;48.150;14.004;2022-08-19T04:14:32;13.63;;;11.33;;
3259;SDS011;22469;48.150;14.004;2022-08-19T04:17:00;13.00;;;11.80;;
3259;SDS011;22469;48.150;14.004;2022-08-19T04:19:31;12.27;;;11.27;;
3259;SDS011;22469;48.150;14.004;2022-08-19T04:22:01;13.07;;;12.00;;
3259;SDS011;22469;48.150;14.004;2022-08-19T04:24:30;12.20;;;11.17;;
3259;SDS011;22469;48.150;14.004;2022-08-19T04:26:59;13.33;;;12.33;;
3259;SDS011;22469;48.150;14.004;2022-08-19T04:29:28;14.53;;;12.80;;
3259;SDS011;22469;48.150;14.004;2022-08-19T04:31:56;15.50;;;13.90;;
3259;SDS011;22469;48.150;14.004;2022-08-19T04:34:35;15.87;;;14.40;;
3259;SDS011;22469;48.150;14.004;2022-08-19T04:37:24;15.10;;;13.77;;
3259;SDS011;22469;48.150;14.004;2022-08-19T04:40:01;15.40;;;13.80;;
3259;SDS011;22469;48.150;14.004;2022-08-19T04:42:51;16.30;;;14.77;;
3259;SDS011;22469;48.150;14.004;2022-08-19T04:45:18;15.50;;;13.93;;
3259;SDS011;22469;48.150;14.004;2022-08-19T04:47:48;15.80;;;14.40;;
3259;SDS011;22469;48.150;14.004;2022-08-19T04:50:35;15.33;;;13.93;;
3259;SDS011;22469;48.150;14.004;2022-08-19T04:53:02;25.83;;;14.60;;
3259;SDS011;22469;48.150;14.004;2022-08-19T04:55:29;17.07;;;15.20;;
3259;SDS011;22469;48.150;14.004;2022-08-19T04:58:03;18.60;;;17.00;;
3259;SDS011;22469;48.150;14.004;2022-08-19T05:00:30;18.20;;;16.50;;
3259;SDS011;22469;48.150;14.004;2022-08-19T05:03:00;17.57;;;15.63;;
3259;SDS011;22469;48.150;14.004;2022-08-19T05:05:33;19.90;;;18.00;;
3259;SDS011;22469;48.150;14.004;2022-08-19T05:08:11;20.57;;;18.57;;
3259;SDS011;22469;48.150;14.004;2022-08-19T05:10:40;18.17;;;16.53;;
3259;SDS011;22469;48.150;14.004;2022-08-19T05:13:07;20.13;;;18.20;;
3259;SDS011;22469;48.150;14.004;2022-08-19T05:15:36;21.33;;;19.07;;
3259;SDS011;22469;48.150;14.004;2022-08-19T05:18:03;19.93;;;17.90;;
3259;SDS011;22469;48.150;14.004;2022-08-19T05:20:49;20.50;;;18.40;;
3259;SDS011;22469;48.150;14.004;2022-08-19T05:23:34;18.27;;;16.37;;
3259;SDS011;22469;48.150;14.004;2022-08-19T05:26:02;19.83;;;18.00;;
3259;SDS011;22469;48.150;14.004;2022-08-19T05:28:29;20.10;;;18.13;;
3259;SDS011;22469;48.150;14.004;2022-08-19T05:30:56;21.03;;;19.03;;
3259;SDS011;22469;48.150;14.004;2022-08-19T05:33:23;20.30;;;18.20;;
3259;SDS011;22469;48.150;14.004;2022-08-19T05:35:51;21.10;;;19.03;;
3259;SDS011;22469;48.150;14.004;2022-08-19T05:38:18;21.13;;;19.23;;
3259;SDS011;22469;48.150;14.004;2022-08-19T05:40:46;24.50;;;21.03;;
3259;SDS011;22469;48.150;14.004;2022-08-19T05:43:15;21.33;;;19.23;;
3259;SDS011;22469;48.150;14.004;2022-08-19T05:45:43;23.30;;;20.90;;
3259;SDS011;22469;48.150;14.004;2022-08-19T05:48:11;21.73;;;19.63;;
3259;SDS011;22469;48.150;14.004;2022-08-19T05:50:40;22.20;;;19.80;;
3259;SDS011;22469;48.150;14.004;2022-08-19T05:53:08;23.17;;;20.80;;
3259;SDS011;22469;48.150;14.004;2022-08-19T05:55:35;26.47;;;23.50;;
3259;SDS011;22469;48.150;14.004;2022-08-19T05:58:04;25.40;;;22.80;;
3259;SDS011;22469;48.150;14.004;2022-08-19T06:00:34;24.90;;;22.27;;
3259;SDS011;22469;48.150;14.004;2022-08-19T06:03:03;25.10;;;22.40;;
3259;SDS011;22469;48.150;14.004;2022-08-19T06:05:38;28.07;;;23.93;;
3259;SDS011;22469;48.150;14.004;2022-08-19T06:08:16;25.27;;;22.77;;
3259;SDS011;22469;48.150;14.004;2022-08-19T06:10:44;24.90;;;22.30;;
3259;SDS011;22469;48.150;14.004;2022-08-19T06:13:11;25.80;;;23.00;;
3259;SDS011;22469;48.150;14.004;2022-08-19T06:15:38;25.67;;;23.20;;
3259;SDS011;22469;48.150;14.004;2022-08-19T06:18:07;26.23;;;23.50;;
3259;SDS011;22469;48.150;14.004;2022-08-19T06:20:34;26.83;;;24.03;;
3259;SDS011;22469;48.150;14.004;2022-08-19T06:23:21;25.60;;;22.93;;
3259;SDS011;22469;48.150;14.004;2022-08-19T06:25:49;25.63;;;23.00;;
3259;SDS011;22469;48.150;14.004;2022-08-19T06:28:16;23.57;;;21.00;;
3259;SDS011;22469;48.150;14.004;2022-08-19T06:30:44;27.13;;;22.87;;
3259;SDS011;22469;48.150;14.004;2022-08-19T06:33:11;23.93;;;21.60;;
3259;SDS011;22469;48.150;14.004;2022-08-19T06:35:39;24.23;;;21.77;;
3259;SDS011;22469;48.150;14.004;2022-08-19T06:38:08;23.23;;;20.80;;
3259;SDS011;22469;48.150;14.004;2022-08-19T06:40:35;23.50;;;21.13;;
3259;SDS011;22469;48.150;14.004;2022-08-19T06:43:04;22.60;;;20.40;;
3259;SDS011;22469;48.150;14.004;2022-08-19T06:45:36;23.23;;;20.97;;
3259;SDS011;22469;48.150;14.004;2022-08-19T06:48:05;24.07;;;21.80;;
3259;SDS011;22469;48.150;14.004;2022-08-19T06:50:33;26.80;;;22.70;;
3259;SDS011;22469;48.150;14.004;2022-08-19T06:53:04;26.17;;;23.47;;
3259;SDS011;22469;48.150;14.004;2022-08-19T06:55:32;25.97;;;23.17;;
3259;SDS011;22469;48.150;14.004;2022-08-19T06:58:01;25.57;;;23.07;;
3259;SDS011;22469;48.150;14.004;2022-08-19T07:00:30;23.90;;;21.60;;
3259;SDS011;22469;48.150;14.004;2022-08-19T07:02:57;24.70;;;22.30;;
3259;SDS011;22469;48.150;14.004;2022-08-19T07:05:31;24.47;;;21.97;;
3259;SDS011;22469;48.150;14.004;2022-08-19T07:07:59;25.93;;;23.53;;
3259;SDS011;22469;48.150;14.004;2022-08-19T07:10:30;26.40;;;22.43;;
3259;SDS011;22469;48.150;14.004;2022-08-19T07:13:00;25.27;;;22.73;;
3259;SDS011;22469;48.150;14.004;2022-08-19T07:15:28;23.27;;;21.00;;
3259;SDS011;22469;48.150;14.004;2022-08-19T07:17:55;24.93;;;22.37;;
3259;SDS011;22469;48.150;14.004;2022-08-19T07:20:22;21.80;;;19.80;;
3259;SDS011;22469;48.150;14.004;2022-08-19T07:22:54;25.40;;;22.67;;
3259;SDS011;22469;48.150;14.004;2022-08-19T07:25:21;25.23;;;22.67;;
3259;SDS011;22469;48.150;14.004;2022-08-19T07:27:58;25.20;;;22.73;;
3259;SDS011;22469;48.150;14.004;2022-08-19T07:30:27;25.97;;;23.37;;
3259;SDS011;22469;48.150;14.004;2022-08-19T07:32:54;24.13;;;21.70;;
3259;SDS011;22469;48.150;14.004;2022-08-19T07:35:22;23.27;;;21.07;;
3259;SDS011;22469;48.150;14.004;2022-08-19T07:37:50;21.60;;;19.40;;
3259;SDS011;22469;48.150;14.004;2022-08-19T07:40:19;25.50;;;22.80;;
3259;SDS011;22469;48.150;14.004;2022-08-19T07:42:47;24.13;;;21.57;;
3259;SDS011;22469;48.150;14.004;2022-08-19T07:45:14;21.70;;;19.50;;
3259;SDS011;22469;48.150;14.004;2022-08-19T07:47:42;24.07;;;21.77;;
3259;SDS011;22469;48.150;14.004;2022-08-19T07:50:17;21.60;;;19.37;;
3259;SDS011;22469;48.150;14.004;2022-08-19T07:52:47;22.60;;;20.30;;
3259;SDS011;22469;48.150;14.004;2022-08-19T07:55:18;23.80;;;21.43;;
3259;SDS011;22469;48.150;14.004;2022-08-19T07:58:09;21.63;;;19.47;;
3259;SDS011;22469;48.150;14.004;2022-08-19T08:00:39;23.60;;;21.17;;
3259;SDS011;22469;48.150;14.004;2022-08-19T08:03:07;25.13;;;21.30;;
3259;SDS011;22469;48.150;14.004;2022-08-19T08:05:35;24.53;;;21.70;;
3259;SDS011;22469;48.150;14.004;2022-08-19T08:08:21;22.47;;;20.17;;
3259;SDS011;22469;48.150;14.004;2022-08-19T08:11:12;23.07;;;20.57;;
3259;SDS011;22469;48.150;14.004;2022-08-19T08:13:42;23.10;;;20.70;;
3259;SDS011;22469;48.150;14.004;2022-08-19T08:16:10;22.97;;;20.60;;
3259;SDS011;22469;48.150;14.004;2022-08-19T08:18:39;22.47;;;20.47;;
3259;SDS011;22469;48.150;14.004;2022-08-19T08:21:16;21.97;;;19.80;;
3259;SDS011;22469;48.150;14.004;2022-08-19T08:23:43;23.93;;;21.43;;
3259;SDS011;22469;48.150;14.004;2022-08-19T08:26:10;20.60;;;18.60;;
3259;SDS011;22469;48.150;14.004;2022-08-19T08:28:41;20.87;;;18.83;;
3259;SDS011;22469;48.150;14.004;2022-08-19T08:31:13;21.17;;;19.17;;
3259;SDS011;22469;48.150;14.004;2022-08-19T08:33:40;21.30;;;19.37;;
3259;SDS011;22469;48.150;14.004;2022-08-19T08:36:08;23.40;;;21.20;;
3259;SDS011;22469;48.150;14.004;2022-08-19T08:38:37;20.27;;;18.27;;
3259;SDS011;22469;48.150;14.004;2022-08-19T08:41:54;22.43;;;20.23;;
3259;SDS011;22469;48.150;14.004;2022-08-19T08:44:20;22.23;;;20.23;;
3259;SDS011;22469;48.150;14.004;2022-08-19T08:46:57;20.77;;;18.70;;
3259;SDS011;22469;48.150;14.004;2022-08-19T08:49:33;20.70;;;18.60;;
3259;SDS011;22469;48.150;14.004;2022-08-19T08:52:34;19.70;;;17.77;;
3259;SDS011;22469;48.150;14.004;2022-08-19T08:55:19;20.27;;;18.23;;
3259;SDS011;22469;48.150;14.004;2022-08-19T08:58:06;17.73;;;16.17;;
3259;SDS011;22469;48.150;14.004;2022-08-19T09:00:44;17.37;;;15.87;;
3259;SDS011;22469;48.150;14.004;2022-08-19T09:17:35;18.50;;;16.80;;
3259;SDS011;22469;48.150;14.004;2022-08-19T09:20:21;17.47;;;15.87;;
3259;SDS011;22469;48.150;14.004;2022-08-19T09:22:51;20.40;;;18.53;;
3259;SDS011;22469;48.150;14.004;2022-08-19T09:25:20;18.63;;;16.83;;
3259;SDS011;22469;48.150;14.004;2022-08-19T09:27:54;18.60;;;16.90;;
3259;SDS011;22469;48.150;14.004;2022-08-19T09:30:29;16.50;;;15.10;;
3259;SDS011;22469;48.150;14.004;2022-08-19T09:33:06;19.60;;;17.90;;
3259;SDS011;22469;48.150;14.004;2022-08-19T09:35:34;20.10;;;18.30;;
3259;SDS011;22469;48.150;14.004;2022-08-19T09:38:18;19.30;;;17.60;;
3259;SDS011;22469;48.150;14.004;2022-08-19T09:40:46;13.40;;;12.20;;
3259;SDS011;22469;48.150;14.004;2022-08-19T09:43:13;13.53;;;12.43;;
3259;SDS011;22469;48.150;14.004;2022-08-19T09:45:58;15.03;;;13.83;;
3259;SDS011;22469;48.150;14.004;2022-08-19T09:48:27;15.93;;;14.53;;
3259;SDS011;22469;48.150;14.004;2022-08-19T09:50:54;16.57;;;15.10;;
3259;SDS011;22469;48.150;14.004;2022-08-19T09:53:21;16.03;;;14.53;;
3259;SDS011;22469;48.150;14.004;2022-08-19T09:55:51;16.37;;;14.77;;
3259;SDS011;22469;48.150;14.004;2022-08-19T09:58:19;16.83;;;15.23;;
3259;SDS011;22469;48.150;14.004;2022-08-19T10:00:51;16.97;;;15.30;;
3259;SDS011;22469;48.150;14.004;2022-08-19T10:03:20;16.40;;;15.00;;
3259;SDS011;22469;48.150;14.004;2022-08-19T10:05:56;16.97;;;15.57;;
3259;SDS011;22469;48.150;14.004;2022-08-19T10:08:27;15.80;;;14.40;;
3259;SDS011;22469;48.150;14.004;2022-08-19T10:11:00;15.20;;;13.77;;
3259;SDS011;22469;48.150;14.004;2022-08-19T10:13:48;13.80;;;12.70;;
3259;SDS011;22469;48.150;14.004;2022-08-19T10:16:19;14.10;;;13.00;;
3259;SDS011;22469;48.150;14.004;2022-08-19T10:18:55;16.37;;;14.87;;
3259;SDS011;22469;48.150;14.004;2022-08-19T10:21:25;13.20;;;12.20;;
3259;SDS011;22469;48.150;14.004;2022-08-19T10:23:59;13.40;;;12.30;;
3259;SDS011;22469;48.150;14.004;2022-08-19T10:26:32;13.23;;;12.13;;
3259;SDS011;22469;48.150;14.004;2022-08-19T10:29:04;14.30;;;13.10;;
3259;SDS011;22469;48.150;14.004;2022-08-19T10:31:34;13.83;;;12.63;;
3259;SDS011;22469;48.150;14.004;2022-08-19T10:34:21;13.97;;;12.57;;
3259;SDS011;22469;48.150;14.004;2022-08-19T10:36:53;16.63;;;15.23;;
3259;SDS011;22469;48.150;14.004;2022-08-19T10:39:27;15.60;;;14.20;;
3259;SDS011;22469;48.150;14.004;2022-08-19T10:42:08;14.17;;;13.07;;
3259;SDS011;22469;48.150;14.004;2022-08-19T10:44:40;13.67;;;12.47;;
3259;SDS011;22469;48.150;14.004;2022-08-19T10:47:08;13.63;;;12.53;;
3259;SDS011;22469;48.150;14.004;2022-08-19T10:49:50;13.03;;;11.97;;
3259;SDS011;22469;48.150;14.004;2022-08-19T10:52:37;13.30;;;12.30;;
3259;SDS011;22469;48.150;14.004;2022-08-19T10:55:15;14.43;;;13.13;;
3259;SDS011;22469;48.150;14.004;2022-08-19T10:58:06;14.50;;;13.20;;
3259;SDS011;22469;48.150;14.004;2022-08-19T11:00:42;14.40;;;13.10;;
3259;SDS011;22469;48.150;14.004;2022-08-19T11:03:10;14.43;;;13.23;;
3259;SDS011;22469;48.150;14.004;2022-08-19T11:05:37;12.80;;;11.80;;
3259;SDS011;22469;48.150;14.004;2022-08-19T11:08:06;14.03;;;12.93;;
3259;SDS011;22469;48.150;14.004;2022-08-19T11:10:52;13.77;;;12.50;;
3259;SDS011;22469;48.150;14.004;2022-08-19T11:13:27;13.20;;;12.10;;
3259;SDS011;22469;48.150;14.004;2022-08-19T11:16:02;13.50;;;12.43;;
3259;SDS011;22469;48.150;14.004;2022-08-19T11:18:34;13.00;;;11.70;;
3259;SDS011;22469;48.150;14.004;2022-08-19T11:21:12;12.57;;;11.47;;
3259;SDS011;22469;48.150;14.004;2022-08-19T11:23:49;12.20;;;11.20;;
3259;SDS011;22469;48.150;14.004;2022-08-19T11:26:19;12.50;;;11.53;;
3259;SDS011;22469;48.150;14.004;2022-08-19T11:28:49;11.77;;;10.77;;
3259;SDS011;22469;48.150;14.004;2022-08-19T11:31:23;12.73;;;11.20;;
3259;SDS011;22469;48.150;14.004;2022-08-19T11:33:58;11.67;;;10.77;;
3259;SDS011;22469;48.150;14.004;2022-08-19T11:36:29;10.53;;;9.83;;
3259;SDS011;22469;48.150;14.004;2022-08-19T11:38:59;11.50;;;10.70;;
3259;SDS011;22469;48.150;14.004;2022-08-19T11:41:27;12.83;;;11.83;;
3259;SDS011;22469;48.150;14.004;2022-08-19T11:43:54;11.60;;;10.70;;
3259;SDS011;22469;48.150;14.004;2022-08-19T11:46:23;10.73;;;9.93;;
3259;SDS011;22469;48.150;14.004;2022-08-19T11:48:54;11.60;;;10.70;;
3259;SDS011;22469;48.150;14.004;2022-08-19T11:51:22;11.10;;;10.30;;
3259;SDS011;22469;48.150;14.004;2022-08-19T11:53:53;11.23;;;10.43;;
3259;SDS011;22469;48.150;14.004;2022-08-19T11:56:23;10.80;;;9.80;;
3259;SDS011;22469;48.150;14.004;2022-08-19T11:58:52;11.27;;;10.33;;
3259;SDS011;22469;48.150;14.004;2022-08-19T12:01:21;11.17;;;10.27;;
3259;SDS011;22469;48.150;14.004;2022-08-19T12:03:51;11.97;;;11.07;;
3259;SDS011;22469;48.150;14.004;2022-08-19T12:06:23;11.03;;;10.13;;
3259;SDS011;22469;48.150;14.004;2022-08-19T12:08:58;11.30;;;10.27;;
3259;SDS011;22469;48.150;14.004;2022-08-19T12:11:30;10.00;;;9.20;;
3259;SDS011;22469;48.150;14.004;2022-08-19T12:14:00;11.33;;;10.43;;
3259;SDS011;22469;48.150;14.004;2022-08-19T12:16:27;10.73;;;9.73;;
3259;SDS011;22469;48.150;14.004;2022-08-19T12:18:58;9.33;;;8.70;;
3259;SDS011;22469;48.150;14.004;2022-08-19T12:21:31;9.80;;;9.10;;
3259;SDS011;22469;48.150;14.004;2022-08-19T12:24:01;9.93;;;9.10;;
3259;SDS011;22469;48.150;14.004;2022-08-19T12:26:33;9.63;;;8.90;;
3259;SDS011;22469;48.150;14.004;2022-08-19T12:29:17;10.00;;;9.20;;
3259;SDS011;22469;48.150;14.004;2022-08-19T12:31:49;10.60;;;9.70;;
3259;SDS011;22469;48.150;14.004;2022-08-19T12:34:17;8.90;;;8.30;;
3259;SDS011;22469;48.150;14.004;2022-08-19T12:36:45;9.90;;;9.07;;
3259;SDS011;22469;48.150;14.004;2022-08-19T12:39:16;8.90;;;8.20;;
3259;SDS011;22469;48.150;14.004;2022-08-19T12:41:43;9.50;;;8.80;;
3259;SDS011;22469;48.150;14.004;2022-08-19T12:44:20;7.60;;;7.07;;
3259;SDS011;22469;48.150;14.004;2022-08-19T12:46:57;9.67;;;8.87;;
3259;SDS011;22469;48.150;14.004;2022-08-19T12:49:27;9.30;;;8.60;;
3259;SDS011;22469;48.150;14.004;2022-08-19T12:52:15;9.23;;;8.53;;
3259;SDS011;22469;48.150;14.004;2022-08-19T12:54:48;8.40;;;7.70;;
3259;SDS011;22469;48.150;14.004;2022-08-19T12:57:20;9.33;;;8.40;;
3259;SDS011;22469;48.150;14.004;2022-08-19T13:02:33;8.20;;;7.70;;
3259;SDS011;22469;48.150;14.004;2022-08-19T13:05:04;8.03;;;7.53;;
3259;SDS011;22469;48.150;14.004;2022-08-19T13:07:35;8.73;;;8.13;;
3259;SDS011;22469;48.150;14.004;2022-08-19T13:10:08;8.07;;;7.57;;
3259;SDS011;22469;48.150;14.004;2022-08-19T13:12:39;9.20;;;8.47;;
3259;SDS011;22469;48.150;14.004;2022-08-19T13:15:07;7.70;;;7.20;;
3259;SDS011;22469;48.150;14.004;2022-08-19T13:17:37;8.27;;;7.67;;
3259;SDS011;22469;48.150;14.004;2022-08-19T13:20:09;7.10;;;6.60;;
3259;SDS011;22469;48.150;14.004;2022-08-19T13:22:37;7.93;;;7.30;;
3259;SDS011;22469;48.150;14.004;2022-08-19T13:25:05;7.60;;;7.10;;
3259;SDS011;22469;48.150;14.004;2022-08-19T13:27:34;7.50;;;7.10;;
3259;SDS011;22469;48.150;14.004;2022-08-19T13:30:03;7.77;;;7.17;;
3259;SDS011;22469;48.150;14.004;2022-08-19T13:32:52;7.60;;;7.10;;
3259;SDS011;22469;48.150;14.004;2022-08-19T13:35:38;7.80;;;7.20;;
3259;SDS011;22469;48.150;14.004;2022-08-19T13:38:22;7.07;;;6.47;;
3259;SDS011;22469;48.150;14.004;2022-08-19T13:40:51;7.50;;;7.00;;
3259;SDS011;22469;48.150;14.004;2022-08-19T13:43:21;7.03;;;6.53;;
3259;SDS011;22469;48.150;14.004;2022-08-19T13:45:51;6.30;;;5.80;;
3259;SDS011;22469;48.150;14.004;2022-08-19T13:48:23;7.00;;;6.60;;
3259;SDS011;22469;48.150;14.004;2022-08-19T13:50:53;7.60;;;7.00;;
3259;SDS011;22469;48.150;14.004;2022-08-19T13:53:20;6.40;;;6.00;;
3259;SDS011;22469;48.150;14.004;2022-08-19T13:55:49;6.83;;;6.43;;
3259;SDS011;22469;48.150;14.004;2022-08-19T13:58:17;6.70;;;6.30;;
3259;SDS011;22469;48.150;14.004;2022-08-19T14:00:44;7.20;;;6.60;;
3259;SDS011;22469;48.150;14.004;2022-08-19T14:03:12;7.60;;;7.00;;
3259;SDS011;22469;48.150;14.004;2022-08-19T14:05:39;6.70;;;6.20;;
3259;SDS011;22469;48.150;14.004;2022-08-19T14:08:06;7.23;;;6.73;;
3259;SDS011;22469;48.150;14.004;2022-08-19T14:10:35;7.37;;;6.77;;
3259;SDS011;22469;48.150;14.004;2022-08-19T14:13:02;6.60;;;6.20;;
3259;SDS011;22469;48.150;14.004;2022-08-19T14:15:31;6.87;;;6.37;;
3259;SDS011;22469;48.150;14.004;2022-08-19T14:17:58;7.60;;;7.00;;
3259;SDS011;22469;48.150;14.004;2022-08-19T14:20:26;7.43;;;6.93;;
3259;SDS011;22469;48.150;14.004;2022-08-19T14:22:54;6.70;;;6.20;;
3259;SDS011;22469;48.150;14.004;2022-08-19T14:25:23;7.77;;;7.27;;
3259;SDS011;22469;48.150;14.004;2022-08-19T14:27:54;6.13;;;5.73;;
3259;SDS011;22469;48.150;14.004;2022-08-19T14:30:24;6.63;;;6.23;;
3259;SDS011;22469;48.150;14.004;2022-08-19T14:32:55;7.20;;;6.80;;
3259;SDS011;22469;48.150;14.004;2022-08-19T14:35:27;6.80;;;6.40;;
3259;SDS011;22469;48.150;14.004;2022-08-19T14:37:57;6.10;;;5.80;;
3259;SDS011;22469;48.150;14.004;2022-08-19T14:40:25;7.57;;;7.07;;
3259;SDS011;22469;48.150;14.004;2022-08-19T14:42:58;6.73;;;6.27;;
3259;SDS011;22469;48.150;14.004;2022-08-19T14:45:31;6.53;;;6.13;;
3259;SDS011;22469;48.150;14.004;2022-08-19T14:48:03;7.23;;;6.70;;
3259;SDS011;22469;48.150;14.004;2022-08-19T14:50:43;2.80;;;2.70;;
3259;SDS011;22469;48.150;14.004;2022-08-19T14:53:11;5.23;;;1.97;;
3259;SDS011;22469;48.150;14.004;2022-08-19T14:55:42;3.30;;;1.40;;
3259;SDS011;22469;48.150;14.004;2022-08-19T14:58:11;1.60;;;1.20;;
3259;SDS011;22469;48.150;14.004;2022-08-19T15:00:55;3.57;;;1.30;;
3259;SDS011;22469;48.150;14.004;2022-08-19T15:03:24;2.00;;;1.60;;
3259;SDS011;22469;48.150;14.004;2022-08-19T15:05:52;4.30;;;1.20;;
3259;SDS011;22469;48.150;14.004;2022-08-19T15:08:19;3.87;;;1.80;;
3259;SDS011;22469;48.150;14.004;2022-08-19T15:10:50;2.00;;;1.20;;
3259;SDS011;22469;48.150;14.004;2022-08-19T15:13:18;4.27;;;1.50;;
3259;SDS011;22469;48.150;14.004;2022-08-19T15:15:45;1.33;;;1.17;;
3259;SDS011;22469;48.150;14.004;2022-08-19T15:18:13;1.20;;;1.07;;
3259;SDS011;22469;48.150;14.004;2022-08-19T15:20:42;1.10;;;1.00;;
3259;SDS011;22469;48.150;14.004;2022-08-19T15:23:12;1.27;;;1.17;;